Time;durP1;ratioP1;P1;durP2;ratioP2;P2;SDS_P1;SDS_P2;PMS_P1;PMS_P2;Temp;Humidity;BMP_temperature;BMP_pressure;BME280_temperature;BME280_humidity;BME280_pressure;Samples;Min_cycle;Max_cycle;Signal;HPM_P1;HPM_P2
2023/01/18 00:01:18;;;;;;;8.23;5.50;;;1.80;98.50;;;5.44;52.24;94666.97;5030508;28;20048;-51
2023/01/18 00:03:46;;;;;;;9.53;6.20;;;1.90;98.90;;;5.44;52.00;94656.41;5028656;28;20420;-50
2023/01/18 00:06:16;;;;;;;8.10;5.90;;;1.90;98.40;;;5.42;52.58;94670.84;5033352;28;20056;-49
2023/01/18 00:08:44;;;;;;;6.97;5.80;;;1.80;98.80;;;5.39;52.10;94663.31;5034209;28;20041;-50
2023/01/18 00:11:17;;;;;;;8.50;5.40;;;1.80;98.90;;;5.38;52.19;94662.50;5034388;28;20049;-51
2023/01/18 00:13:45;;;;;;;7.30;6.03;;;1.80;99.70;;;5.35;52.38;94665.56;5034182;28;20389;-48
2023/01/18 00:16:17;;;;;;;6.87;5.37;;;1.70;99.90;;;5.29;52.18;94661.91;5034190;28;20045;-54
2023/01/18 00:18:55;;;;;;;8.20;5.57;;;1.60;99.90;;;5.25;52.88;94665.97;5034035;28;20049;-53
2023/01/18 00:21:24;;;;;;;8.57;5.70;;;1.70;99.90;;;5.27;53.19;94663.09;5034163;28;20050;-49
2023/01/18 00:23:53;;;;;;;7.90;5.83;;;1.70;99.90;;;5.29;52.67;94669.81;5033899;28;20049;-48
2023/01/18 00:26:21;;;;;;;8.27;6.17;;;1.70;99.90;;;5.28;52.97;94665.53;5034220;28;20045;-47
2023/01/18 00:28:49;;;;;;;11.03;5.83;;;1.70;99.90;;;5.23;52.83;94667.97;5033756;28;20044;-46
2023/01/18 00:31:19;;;;;;;8.37;6.10;;;1.70;99.90;;;5.19;53.03;94666.75;5032677;28;20048;-49
2023/01/18 00:33:49;;;;;;;7.97;5.50;;;1.60;99.90;;;5.12;53.08;94671.22;5032532;28;20052;-48
2023/01/18 00:36:17;;;;;;;7.47;5.73;;;1.60;99.90;;;5.10;53.51;94676.69;5032937;28;20045;-46
2023/01/18 00:38:52;;;;;;;10.17;7.00;;;1.50;99.90;;;5.06;53.11;94682.53;5032391;28;20049;-50
2023/01/18 00:41:21;;;;;;;8.23;5.53;;;1.40;99.90;;;5.05;53.34;94673.81;5032683;28;20057;-50
2023/01/18 00:43:51;;;;;;;9.67;6.43;;;1.40;99.90;;;5.02;53.57;94668.97;5032500;28;20044;-51
2023/01/18 00:46:26;;;;;;;9.73;6.33;;;1.40;99.90;;;5.01;53.76;94677.88;5032116;28;20535;-49
2023/01/18 00:48:54;;;;;;;11.63;6.53;;;1.40;99.90;;;4.97;53.29;94667.94;5033144;28;20444;-46
2023/01/18 00:51:24;;;;;;;12.13;6.50;;;1.40;99.90;;;4.91;53.41;94672.16;5032358;28;20049;-50
2023/01/18 00:53:51;;;;;;;8.77;6.37;;;1.30;99.90;;;4.87;54.29;94670.94;5032514;28;20045;-49
2023/01/18 00:56:20;;;;;;;11.23;6.57;;;1.30;99.90;;;4.85;54.15;94678.25;5033567;28;20405;-53
2023/01/18 00:58:49;;;;;;;12.27;6.80;;;1.30;99.90;;;4.84;53.82;94677.41;5032087;28;20269;-51
2023/01/18 01:01:16;;;;;;;10.23;6.43;;;1.30;99.90;;;4.82;53.92;94678.63;5031888;28;20042;-50
2023/01/18 01:06:43;;;;;;;8.33;6.07;;;1.30;99.90;;;4.79;53.54;94681.63;5033469;28;20045;-49
2023/01/18 01:09:22;;;;;;;11.97;7.33;;;1.20;99.90;;;4.77;54.00;94679.22;5024839;28;20421;-52
2023/01/18 01:26:06;;;;;;;12.50;7.17;;;1.50;99.90;;;5.03;54.04;94681.13;5030459;28;20049;-50
2023/01/18 01:28:42;;;;;;;10.33;6.33;;;1.60;99.90;;;5.04;53.53;94688.03;5030260;28;20719;-47
2023/01/18 01:31:14;;;;;;;9.23;6.17;;;1.50;99.90;;;5.08;53.35;94691.88;5022875;28;20045;-51
2023/01/18 01:33:47;;;;;;;11.40;6.27;;;1.50;99.90;;;5.03;53.39;94696.94;5031797;28;20269;-47
2023/01/18 01:36:19;;;;;;;10.52;6.30;;;1.40;99.90;;;5.01;53.48;94696.31;5032534;28;20045;-54
2023/01/18 01:38:47;;;;;;;10.60;6.47;;;1.40;99.90;;;5.06;53.71;94703.63;5014979;28;20430;-50
2023/01/18 01:41:26;;;;;;;6.97;4.73;;;1.40;99.90;;;5.02;53.65;94708.50;5032861;28;20034;-49
2023/01/18 01:43:57;;;;;;;7.77;5.90;;;1.40;99.90;;;5.02;53.86;94707.69;5032389;28;20048;-47
2023/01/18 01:46:45;;;;;;;9.60;5.97;;;1.40;99.90;;;5.05;53.61;94709.94;5032902;28;20049;-50
2023/01/18 01:49:31;;;;;;;6.70;4.67;;;1.40;99.90;;;5.04;53.53;94711.75;5031441;28;20046;-48
2023/01/18 01:52:15;;;;;;;9.13;6.07;;;1.50;99.90;;;5.07;53.09;94719.25;5031223;28;20073;-49
2023/01/18 01:55:01;;;;;;;10.00;6.50;;;1.50;99.90;;;5.10;53.34;94718.88;5031435;28;20502;-50
2023/01/18 01:57:43;;;;;;;9.97;6.10;;;1.60;99.90;;;5.09;53.67;94719.88;5031439;28;20042;-49
2023/01/18 02:00:21;;;;;;;11.13;6.50;;;1.50;99.90;;;5.08;53.35;94715.63;5024510;28;20048;-50
2023/01/18 02:02:59;;;;;;;9.93;5.87;;;1.50;99.90;;;5.04;53.73;94719.66;5028480;28;20049;-51
2023/01/18 02:05:30;;;;;;;10.20;6.53;;;1.40;99.90;;;5.00;53.55;94721.09;5032248;28;20038;-49
2023/01/18 02:08:01;;;;;;;10.33;6.20;;;1.40;99.90;;;4.98;53.72;94723.06;5032416;28;20052;-47
2023/01/18 02:10:30;;;;;;;12.27;7.07;;;1.30;99.90;;;4.95;53.92;94728.75;5031935;28;20045;-51
2023/01/18 02:12:58;;;;;;;9.90;5.83;;;1.30;99.90;;;4.92;53.96;94729.13;5031031;28;20045;-51
2023/01/18 02:15:47;;;;;;;11.17;6.63;;;1.30;99.90;;;4.81;54.13;94727.91;5032230;28;20052;-48
2023/01/18 02:18:43;;;;;;;9.07;6.17;;;1.20;99.90;;;4.78;54.15;94738.03;5023872;28;20037;-47
2023/01/18 02:21:22;;;;;;;10.77;5.87;;;1.10;99.90;;;4.72;54.22;94734.34;5023483;28;20041;-50
2023/01/18 02:24:25;;;;;;;10.20;6.43;;;1.10;99.90;;;4.49;55.31;94738.06;5031206;28;20033;-49
2023/01/18 02:27:11;;;;;;;11.20;6.53;;;0.90;99.90;;;4.54;54.67;94742.78;5031861;28;20473;-49
2023/01/18 02:29:59;;;;;;;10.17;6.47;;;0.90;99.90;;;4.55;54.76;94744.38;5031118;28;20053;-51
2023/01/18 02:33:07;;;;;;;11.07;6.30;;;1.00;99.90;;;4.49;54.87;94747.81;5026269;28;20041;-48
2023/01/18 02:35:49;;;;;;;11.53;7.27;;;0.90;99.90;;;4.57;54.96;94754.72;5026019;28;20064;-48
2023/01/18 02:38:23;;;;;;;13.37;8.07;;;1.00;99.90;;;4.64;54.87;94759.03;5023343;28;20041;-52
2023/01/18 02:46:29;;;;;;;12.23;7.80;;;1.10;99.90;;;4.68;54.57;94754.19;5031225;28;20417;-49
2023/01/18 02:47:16;;;;;;;11.97;6.80;;;1.20;99.90;;;4.73;54.92;94760.50;5023002;28;20053;-49
2023/01/18 02:49:44;;;;;;;12.70;7.33;;;1.10;99.90;;;4.77;55.09;94770.63;5030061;28;20045;-50
2023/01/18 02:52:41;;;;;;;13.07;7.57;;;1.20;99.90;;;4.73;54.97;94767.59;5023674;28;20448;-49
2023/01/18 02:55:45;;;;;;;11.47;7.23;;;1.20;99.90;;;4.65;55.12;94763.31;5031687;28;20110;-48
2023/01/18 02:58:41;;;;;;;10.88;7.05;;;1.20;99.90;;;4.65;54.66;94763.31;5023790;28;20068;-48
2023/01/18 03:01:42;;;;;;;12.20;6.70;;;1.00;99.90;;;4.63;55.17;94765.28;5016723;28;20041;-51
2023/01/18 03:04:26;;;;;;;13.03;7.13;;;1.20;99.90;;;4.73;54.69;94770.25;5029467;28;20041;-48
2023/01/18 03:07:58;;;;;;;13.93;7.38;;;1.20;99.90;;;4.58;54.83;94772.19;5030259;28;20041;-53
2023/01/18 03:10:30;;;;;;;11.23;7.33;;;1.00;99.90;;;4.62;55.17;94776.84;4982832;28;20042;-49
2023/01/18 03:13:14;;;;;;;11.87;7.87;;;1.10;99.90;;;4.44;55.17;94772.09;4973383;28;20058;-53
2023/01/18 03:15:54;;;;;;;;;;;0.90;99.90;;;4.48;55.21;94772.53;5018915;28;20057;-49
2023/01/18 03:19:01;;;;;;;10.13;6.27;;;1.00;99.90;;;4.49;55.21;94772.31;5024361;28;19928;-49
2023/01/18 03:21:41;;;;;;;14.10;6.67;;;0.90;99.90;;;4.51;55.17;94775.56;5024169;28;20276;-50
2023/01/18 03:24:10;;;;;;;10.57;6.90;;;0.90;99.90;;;4.42;55.29;94774.13;5030044;28;20045;-48
2023/01/18 03:26:45;;;;;;;10.77;6.87;;;0.80;99.90;;;4.42;55.52;94770.66;5029832;28;20386;-51
2023/01/18 03:35:15;;;;;;;12.47;7.23;;;1.00;99.90;;;4.53;55.40;94778.81;5029691;28;20033;-54
2023/01/18 03:37:47;;;;;;;10.97;6.53;;;1.00;99.90;;;4.47;56.21;94781.44;5029674;28;20049;-47
2023/01/18 03:40:26;;;;;;;12.30;6.47;;;0.90;99.90;;;4.44;55.53;94780.00;5021035;28;20047;-51
2023/01/18 03:43:15;;;;;;;10.33;6.87;;;0.90;99.90;;;4.50;55.98;94781.06;5029707;28;20053;-48
2023/01/18 03:45:47;;;;;;;14.07;9.93;;;1.00;99.90;;;4.46;56.16;94790.31;5030984;28;20041;-48
2023/01/18 03:48:15;;;;;;;11.93;6.47;;;0.90;99.90;;;4.41;56.21;94790.91;5030839;28;20041;-52
2023/01/18 03:51:01;;;;;;;11.63;7.17;;;0.90;99.90;;;4.46;55.94;94790.31;5029384;28;20033;-53
2023/01/18 03:54:10;;;;;;;11.43;6.60;;;0.90;99.90;;;4.49;56.02;94803.13;5024727;28;20485;-47
2023/01/18 03:56:57;;;;;;;12.40;7.13;;;1.00;99.90;;;4.48;55.63;94802.31;5025000;28;20048;-47
2023/01/18 03:59:31;;;;;;;9.07;6.37;;;1.00;99.90;;;4.50;56.24;94802.13;5022912;28;20041;-49
2023/01/18 04:02:01;;;;;;;11.63;6.90;;;1.00;99.90;;;4.56;55.65;94805.81;5013852;28;20053;-51
2023/01/18 04:04:29;;;;;;;14.63;7.83;;;1.10;99.90;;;4.60;55.63;94807.88;5030190;28;20041;-51
2023/01/18 04:06:57;;;;;;;10.90;7.03;;;1.10;99.90;;;4.68;56.10;94812.97;5030635;28;20137;-50
2023/01/18 04:09:25;;;;;;;10.07;6.90;;;1.10;99.90;;;4.68;56.19;94815.59;5030330;28;20528;-50
2023/01/18 04:11:53;;;;;;;9.07;5.93;;;1.10;99.90;;;4.61;55.65;94819.22;5029264;28;20050;-47
2023/01/18 04:14:21;;;;;;;9.20;5.83;;;1.00;99.90;;;4.57;55.32;94820.59;5030372;28;20065;-46
2023/01/18 04:16:49;;;;;;;7.37;5.53;;;1.00;99.90;;;4.51;55.46;94820.34;5030410;28;20038;-50
2023/01/18 04:19:17;;;;;;;8.37;5.47;;;1.00;99.90;;;4.49;55.65;94825.00;5021269;28;20390;-48
2023/01/18 04:21:44;;;;;;;10.60;5.80;;;0.90;99.90;;;4.57;55.94;94825.88;5030423;28;20105;-51
2023/01/18 04:24:12;;;;;;;8.13;5.60;;;1.00;99.90;;;4.58;55.95;94838.88;5031020;28;20064;-50
2023/01/18 04:26:40;;;;;;;7.47;5.03;;;1.00;99.90;;;4.53;55.42;94836.78;5030920;28;20412;-52
2023/01/18 04:29:08;;;;;;;9.10;5.77;;;1.00;99.90;;;4.42;55.63;94836.50;5030039;28;20053;-50
2023/01/18 04:31:36;;;;;;;10.40;6.10;;;0.90;99.90;;;4.47;55.95;94844.66;5030736;28;20501;-52
2023/01/18 04:34:04;;;;;;;8.43;5.37;;;0.90;99.90;;;4.44;55.49;94848.50;5029293;28;20531;-49
2023/01/18 04:36:32;;;;;;;10.53;6.30;;;0.90;99.90;;;4.46;55.75;94849.13;5030694;28;20048;-53
2023/01/18 04:38:59;;;;;;;11.27;6.90;;;0.90;99.90;;;4.29;56.24;94847.78;5030057;28;20500;-50
2023/01/18 04:41:27;;;;;;;12.57;6.93;;;0.80;99.90;;;4.22;56.39;94858.22;5030167;28;20481;-47
2023/01/18 04:43:55;;;;;;;11.17;6.00;;;0.80;99.90;;;4.22;56.12;94858.22;5030025;28;20037;-47
2023/01/18 04:46:23;;;;;;;9.13;6.30;;;0.70;99.90;;;4.10;56.60;94860.56;5030222;28;20046;-47
2023/01/18 04:48:51;;;;;;;7.10;4.97;;;0.70;99.90;;;4.17;56.48;94865.06;5028963;28;20404;-46
2023/01/18 04:51:22;;;;;;;6.90;4.80;;;0.70;99.90;;;4.23;56.37;94865.16;5031098;28;20057;-50
2023/01/18 04:53:50;;;;;;;8.83;5.50;;;0.80;99.90;;;4.34;56.03;94871.69;5033933;28;20049;-50
2023/01/18 04:56:19;;;;;;;10.40;7.20;;;0.80;99.90;;;4.36;56.28;94874.97;5033824;28;20420;-51
2023/01/18 04:58:47;;;;;;;12.37;6.20;;;0.90;99.90;;;4.32;55.93;94876.34;5033463;28;20121;-46
2023/01/18 05:01:15;;;;;;;7.77;4.93;;;0.80;99.90;;;4.34;56.08;94879.59;5033184;28;20048;-51
2023/01/18 05:03:43;;;;;;;8.03;5.60;;;0.80;99.90;;;4.41;55.82;94887.56;5030848;28;20040;-47
2023/01/18 05:06:14;;;;;;;10.03;5.73;;;1.00;99.90;;;4.43;56.71;94894.28;5033453;28;20041;-46
2023/01/18 05:08:42;;;;;;;8.93;5.30;;;1.00;99.90;;;4.51;55.88;94904.66;5031974;28;20492;-51
2023/01/18 05:11:16;;;;;;;7.67;5.07;;;1.00;99.90;;;4.44;56.46;94895.09;5032182;28;20541;-50
2023/01/18 05:13:45;;;;;;;7.10;4.43;;;1.00;99.90;;;4.24;56.85;94914.16;5033505;28;20052;-46
2023/01/18 05:16:18;;;;;;;6.03;3.70;;;0.80;99.90;;;4.25;55.99;94920.28;5032085;28;20137;-50
2023/01/18 05:18:46;;;;;;;5.80;3.47;;;0.70;99.90;;;4.08;56.39;94925.75;5033286;28;20045;-51
2023/01/18 05:21:14;;;;;;;8.20;3.93;;;0.60;99.90;;;4.10;56.51;94934.28;5033092;28;20412;-47
2023/01/18 05:23:42;;;;;;;6.17;4.33;;;0.60;99.90;;;4.18;56.35;94932.56;5033407;28;20041;-50
2023/01/18 05:26:19;;;;;;;10.23;4.57;;;0.70;99.90;;;4.21;56.39;94937.44;5033171;28;20041;-49
2023/01/18 05:28:49;;;;;;;8.07;4.77;;;0.80;99.90;;;4.23;55.96;94949.41;5033192;28;20041;-49
2023/01/18 05:31:19;;;;;;;7.50;4.93;;;0.80;99.90;;;4.26;56.05;94946.38;5031916;28;20061;-50
2023/01/18 05:33:48;;;;;;;6.87;4.60;;;0.80;99.90;;;4.03;56.83;94964.19;5032910;28;20041;-51
2023/01/18 05:36:16;;;;;;;6.77;3.77;;;0.70;99.90;;;3.82;57.34;94960.53;5031714;28;20049;-49
2023/01/18 05:38:44;;;;;;;4.40;2.93;;;0.50;99.90;;;3.61;57.96;94966.56;5031558;28;20044;-52
2023/01/18 05:41:12;;;;;;;6.60;4.00;;;0.40;99.90;;;3.68;57.92;94977.16;5031858;28;20045;-50
2023/01/18 05:43:41;;;;;;;6.17;4.10;;;0.40;99.90;;;3.58;58.52;94980.06;5031520;28;20053;-50
2023/01/18 05:46:08;;;;;;;7.13;3.83;;;0.40;99.90;;;3.55;58.68;94972.53;5032800;28;20538;-51
2023/01/18 05:48:36;;;;;;;5.13;3.93;;;0.30;99.90;;;3.35;59.05;94994.16;5032667;28;20048;-49
2023/01/18 05:51:09;;;;;;;5.03;3.47;;;0.20;99.90;;;3.07;59.85;94991.31;5032557;28;20046;-50
2023/01/18 05:53:39;;;;;;;5.97;4.07;;;0.20;99.90;;;3.24;59.19;94991.97;5032737;28;20492;-48
2023/01/18 05:56:08;;;;;;;6.07;3.97;;;0.10;99.90;;;3.10;59.73;95006.72;5032665;28;20421;-51
2023/01/18 05:58:37;;;;;;;7.57;5.57;;;0.10;99.90;;;3.17;59.44;95006.00;5033009;28;20037;-50
2023/01/18 06:01:06;;;;;;;5.73;3.90;;;0.10;99.90;;;3.22;59.61;95007.09;5032386;28;20041;-47
2023/01/18 06:03:35;;;;;;;5.30;4.00;;;0.10;99.90;;;3.06;60.23;95010.69;5032495;28;20045;-53
2023/01/18 06:06:03;;;;;;;6.57;4.40;;;0.10;99.90;;;3.19;59.50;95025.03;5031466;28;20046;-46
2023/01/18 06:08:31;;;;;;;7.23;5.10;;;0.10;99.90;;;2.96;60.16;95029.34;5032151;28;20048;-51
2023/01/18 06:11:00;;;;;;;9.43;5.03;;;0.10;99.90;;;2.88;60.74;95036.50;5032270;28;20512;-50
2023/01/18 06:13:30;;;;;;;9.87;6.20;;;0.00;99.90;;;3.18;59.65;95039.16;5031146;28;20532;-52
2023/01/18 06:16:00;;;;;;;9.87;6.20;;;0.10;99.90;;;3.31;60.16;95047.25;5030991;28;20053;-49
2023/01/18 06:18:31;;;;;;;11.70;7.53;;;0.20;99.90;;;3.38;59.86;95052.63;5030935;28;20056;-53
2023/01/18 06:21:03;;;;;;;10.60;6.93;;;0.30;99.90;;;3.24;60.01;95060.31;5030715;28;20049;-52
2023/01/18 06:23:31;;;;;;;13.03;9.00;;;0.20;99.90;;;3.40;59.76;95063.78;5031059;28;20037;-52
2023/01/18 06:25:58;;;;;;;13.40;8.23;;;0.30;99.90;;;3.19;60.31;95067.09;5031142;28;20057;-52
2023/01/18 06:28:26;;;;;;;13.63;7.90;;;0.20;99.90;;;3.15;60.16;95075.34;5031984;28;20045;-52
2023/01/18 06:30:57;;;;;;;13.07;7.60;;;0.10;99.90;;;3.32;59.85;95073.38;5031974;28;20054;-48
2023/01/18 06:33:25;;;;;;;11.03;7.53;;;0.20;99.90;;;3.32;59.55;95083.91;5024265;28;20045;-52
2023/01/18 06:35:53;;;;;;;12.67;7.83;;;0.20;99.90;;;3.31;59.52;95082.25;5030959;28;20052;-51
2023/01/18 06:38:20;;;;;;;9.83;6.40;;;0.10;99.90;;;3.46;59.11;95078.84;5031701;28;20064;-50
2023/01/18 06:40:48;;;;;;;13.07;7.70;;;0.20;99.90;;;3.29;59.84;95086.06;5031767;28;20045;-52
2023/01/18 06:43:16;;;;;;;11.37;7.47;;;0.10;99.90;;;3.38;59.36;95092.09;5031653;28;20057;-50
2023/01/18 06:45:55;;;;;;;9.63;7.20;;;0.20;99.90;;;3.41;59.35;95099.59;5031787;28;20064;-50
2023/01/18 06:48:25;;;;;;;12.67;8.60;;;0.20;99.90;;;3.40;59.30;95098.00;5030421;28;20045;-50
2023/01/18 06:50:56;;;;;;;10.90;7.20;;;0.10;99.90;;;3.41;59.03;95102.22;5031392;28;20056;-48
2023/01/18 06:53:24;;;;;;;14.33;8.53;;;0.10;99.90;;;3.43;59.51;95114.22;5030388;28;20505;-53
2023/01/18 06:55:57;;;;;;;10.73;7.07;;;0.10;99.90;;;3.26;59.53;95115.38;5031284;28;20416;-52
2023/01/18 06:58:27;;;;;;;11.60;7.43;;;0.10;99.90;;;3.27;59.62;95125.69;5030205;28;20477;-48
2023/01/18 07:00:56;;;;;;;9.73;7.00;;;0.10;99.90;;;3.25;59.65;95129.50;5031303;28;20038;-52
2023/01/18 07:03:26;;;;;;;13.70;7.37;;;0.10;99.90;;;3.22;59.40;95128.06;5031568;28;20033;-47
2023/01/18 07:05:59;;;;;;;11.33;8.17;;;0.00;99.90;;;3.14;60.05;95136.81;5028873;28;20045;-47
2023/01/18 07:08:31;;;;;;;10.27;7.50;;;0.00;99.90;;;3.19;59.96;95135.47;5023508;28;20072;-53
2023/01/18 07:11:08;;;;;;;14.60;7.13;;;0.00;99.90;;;3.22;59.49;95146.47;5031337;28;20046;-48
2023/01/18 07:13:39;;;;;;;9.27;6.47;;;0.00;99.90;;;3.31;59.55;95144.56;5024227;28;20057;-49
2023/01/18 07:16:16;;;;;;;10.97;7.43;;;0.10;99.90;;;3.39;59.09;95155.00;5031105;28;20394;-50
2023/01/18 07:18:47;;;;;;;6.27;4.60;;;0.10;99.90;;;3.14;60.13;95160.47;5030696;28;20049;-47
2023/01/18 07:21:16;;;;;;;14.67;7.73;;;0.00;99.90;;;3.20;59.65;95166.84;5031194;28;20493;-51
2023/01/18 07:23:45;;;;;;;13.40;7.50;;;0.00;99.90;;;3.32;59.30;95167.25;5031214;28;20033;-48
2023/01/18 07:26:15;;;;;;;9.63;7.60;;;0.00;99.90;;;3.39;59.17;95176.06;5031037;28;20446;-46
2023/01/18 07:28:45;;;;;;;12.27;7.37;;;0.00;99.90;;;3.40;58.53;95182.16;5030539;28;20493;-49
2023/01/18 07:31:13;;;;;;;9.00;6.47;;;0.00;99.90;;;3.31;58.71;95187.44;5030818;28;20068;-50
2023/01/18 07:33:41;;;;;;;10.30;6.97;;;0.10;99.90;;;3.16;58.91;95202.38;5030009;28;20048;-50
2023/01/18 07:36:10;;;;;;;12.33;8.23;;;0.00;99.90;;;3.38;58.84;95194.66;5030746;28;20049;-47
2023/01/18 07:38:38;;;;;;;12.57;6.97;;;0.10;99.90;;;3.17;59.09;95205.81;5029612;28;20041;-48
2023/01/18 07:41:13;;;;;;;12.77;8.93;;;-0.10;99.90;;;3.33;58.67;95205.69;5030573;28;20048;-51
2023/01/18 07:43:43;;;;;;;11.53;6.33;;;0.00;99.90;;;3.13;59.29;95210.59;5031031;28;20060;-49
2023/01/18 07:46:19;;;;;;;11.07;7.23;;;0.00;99.90;;;3.13;59.01;95214.03;5029439;28;20061;-49
2023/01/18 07:48:47;;;;;;;22.77;9.67;;;-0.10;99.90;;;3.11;58.77;95217.84;5029247;28;20052;-54
2023/01/18 07:51:15;;;;;;;12.23;8.57;;;-0.20;99.90;;;3.14;58.94;95222.75;5030693;28;20049;-49
2023/01/18 07:53:44;;;;;;;13.63;8.63;;;-0.20;99.90;;;3.15;58.88;95222.56;5030802;28;20049;-48
2023/01/18 07:56:15;;;;;;;14.03;8.30;;;-0.10;99.90;;;3.07;59.22;95222.63;5029401;28;20049;-50
2023/01/18 07:58:44;;;;;;;10.93;7.30;;;-0.20;99.90;;;3.08;59.21;95224.28;5030467;28;20390;-53
2023/01/18 08:01:16;;;;;;;11.43;7.80;;;-0.10;99.90;;;3.22;59.19;95233.22;5029424;28;20048;-49
2023/01/18 08:03:49;;;;;;;14.10;8.90;;;0.00;99.90;;;3.22;58.90;95241.13;5010501;28;20277;-49
2023/01/18 08:06:24;;;;;;;12.83;7.43;;;-0.10;99.90;;;3.26;58.71;95237.16;5029676;28;20056;-48
2023/01/18 08:08:55;;;;;;;12.20;8.17;;;-0.10;99.90;;;3.25;58.72;95245.19;5030516;28;20041;-47
2023/01/18 08:11:24;;;;;;;11.80;7.47;;;-0.10;99.90;;;3.34;58.77;95254.69;5029380;28;20053;-50
2023/01/18 08:13:52;;;;;;;11.60;7.50;;;0.00;99.90;;;3.29;59.22;95259.63;5030702;28;20057;-51
2023/01/18 08:16:19;;;;;;;13.37;7.30;;;0.10;99.90;;;3.30;58.86;95258.66;5030726;28;20053;-48
2023/01/18 08:18:50;;;;;;;9.63;7.27;;;0.00;99.90;;;3.30;58.85;95267.34;5030208;28;20041;-51
2023/01/18 08:21:18;;;;;;;11.67;7.70;;;0.00;99.90;;;3.22;58.69;95266.56;5030289;28;20045;-47
2023/01/18 08:23:46;;;;;;;11.57;7.77;;;0.00;99.90;;;3.39;58.67;95270.75;5030700;28;20048;-47
2023/01/18 08:26:14;;;;;;;9.70;7.37;;;0.00;99.90;;;3.47;58.44;95281.22;5031515;28;20048;-52
2023/01/18 08:28:43;;;;;;;13.13;8.57;;;0.10;99.90;;;3.45;58.25;95279.75;5034273;28;20049;-51
2023/01/18 08:31:15;;;;;;;10.17;7.50;;;0.10;99.90;;;3.42;58.81;95282.75;5033867;28;20056;-50
2023/01/18 08:33:47;;;;;;;10.50;7.73;;;0.10;99.90;;;3.48;58.37;95297.81;5034440;28;20044;-49
2023/01/18 08:36:22;;;;;;;11.43;8.13;;;0.10;99.90;;;3.54;58.45;95297.13;5033021;28;20053;-51
2023/01/18 08:38:55;;;;;;;11.67;7.47;;;0.20;99.90;;;3.55;58.35;95311.94;5032898;28;20033;-50
2023/01/18 08:41:29;;;;;;;13.35;8.00;;;0.20;99.90;;;3.61;58.29;95313.03;5033392;28;20448;-48
2023/01/18 08:43:58;;;;;;;9.60;6.65;;;0.20;99.90;;;3.45;58.41;95320.03;5032814;28;20055;-48
2023/01/18 08:46:26;;;;;;;10.30;6.63;;;0.10;99.90;;;3.26;58.95;95337.06;5032843;28;20045;-50
2023/01/18 08:48:57;;;;;;;11.70;7.63;;;0.00;99.90;;;3.50;58.34;95343.19;5033680;28;20044;-49
2023/01/18 08:51:25;;;;;;;8.63;6.33;;;0.10;99.90;;;3.55;58.08;95352.19;5033554;28;20049;-50
2023/01/18 08:53:56;;;;;;;10.47;7.23;;;0.10;99.90;;;3.59;58.16;95357.94;5034499;28;20045;-47
2023/01/18 08:56:24;;;;;;;10.70;7.97;;;0.20;99.90;;;3.51;58.43;95356.19;5033403;28;20049;-48
2023/01/18 08:58:52;;;;;;;14.20;7.83;;;0.10;99.90;;;3.51;58.48;95355.38;5033413;28;20048;-50
2023/01/18 09:01:22;;;;;;;11.60;7.13;;;0.10;99.90;;;3.40;58.47;95358.38;5016298;28;20049;-48
2023/01/18 09:03:54;;;;;;;9.27;6.87;;;0.10;99.90;;;3.38;58.69;95357.72;5033496;28;20042;-47
2023/01/18 09:06:22;;;;;;;9.70;7.53;;;0.00;99.90;;;3.33;58.51;95364.34;5032365;28;20497;-47
2023/01/18 09:08:50;;;;;;;12.20;7.90;;;0.00;99.90;;;3.34;58.89;95365.16;5026189;28;20068;-48
2023/01/18 09:11:18;;;;;;;9.27;5.83;;;0.00;99.90;;;3.43;58.51;95361.50;5031593;28;20045;-46
2023/01/18 09:13:47;;;;;;;11.73;7.53;;;0.10;99.90;;;3.57;58.33;95378.34;5032061;28;20524;-48
2023/01/18 09:16:29;;;;;;;11.87;7.50;;;0.20;99.90;;;3.67;58.13;95386.03;5031804;28;20064;-46
2023/01/18 09:18:57;;;;;;;10.90;7.33;;;0.30;99.90;;;3.54;58.28;95384.75;5033120;28;20045;-52
2023/01/18 09:21:27;;;;;;;10.70;6.60;;;0.20;99.90;;;3.55;58.17;95394.28;5033161;28;20041;-51
2023/01/18 09:23:55;;;;;;;8.37;5.87;;;0.20;99.90;;;3.28;58.86;95405.28;5048336;28;20042;-51
2023/01/18 09:26:24;;;;;;;11.03;6.83;;;0.10;99.90;;;3.48;58.39;95413.56;5031832;28;20046;-49
2023/01/18 09:28:52;;;;;;;9.00;6.07;;;0.10;99.90;;;3.54;57.98;95412.88;5031419;28;20049;-48
2023/01/18 09:31:24;;;;;;;10.83;7.93;;;0.10;99.90;;;3.51;58.26;95423.75;5031728;28;20496;-49
2023/01/18 09:33:55;;;;;;;12.30;6.83;;;0.10;99.90;;;3.37;58.44;95430.53;5032973;28;20304;-52
2023/01/18 09:36:40;;;;;;;9.40;6.30;;;0.00;99.90;;;3.45;58.48;95440.22;5025080;28;20037;-48
2023/01/18 09:39:07;;;;;;;9.00;5.80;;;0.10;99.90;;;3.58;57.95;95437.84;5031435;28;20496;-48
2023/01/18 09:41:43;;;;;;;9.47;7.00;;;0.20;99.90;;;3.68;57.74;95440.28;5025085;28;20041;-42
2023/01/18 09:44:32;;;;;;;10.33;7.43;;;0.30;99.90;;;3.68;58.07;95448.16;5031597;28;20052;-41
2023/01/18 09:47:25;;;;;;;9.63;6.40;;;0.30;99.90;;;3.46;57.83;95457.66;5017256;28;20465;-41
2023/01/18 09:50:21;;;;;;;8.13;5.37;;;0.10;99.90;;;3.47;57.81;95460.13;5026370;28;20167;-41
2023/01/18 09:53:23;;;;;;;11.40;5.80;;;0.10;99.90;;;3.48;58.31;95453.03;5025399;28;20496;-41
2023/01/18 09:56:11;;;;;;;9.30;6.57;;;0.20;99.90;;;3.46;57.98;95457.66;5022939;28;20053;-41
2023/01/18 09:59:19;;;;;;;11.50;7.83;;;0.20;99.90;;;3.46;58.19;95470.81;5021783;28;20074;-42
2023/01/18 10:01:48;;;;;;;9.47;5.20;;;0.20;99.90;;;3.45;58.32;95475.25;5025199;28;20049;-41
2023/01/18 10:04:28;;;;;;;10.33;6.27;;;0.20;99.90;;;3.52;58.41;95472.75;5028078;28;20046;-41
2023/01/18 10:07:05;;;;;;;10.23;5.63;;;0.20;99.90;;;3.55;58.27;95483.75;5025764;28;20489;-42
2023/01/18 10:09:43;;;;;;;9.93;6.30;;;0.20;99.90;;;3.45;58.44;95485.78;5024686;28;20037;-41
2023/01/18 10:12:41;;;;;;;11.70;6.67;;;0.20;99.90;;;3.47;58.53;95486.41;5027009;28;20414;-42
2023/01/18 10:15:30;;;;;;;10.47;7.33;;;0.20;99.90;;;3.52;58.40;95485.91;5027230;28;20057;-42
2023/01/18 10:17:59;;;;;;;8.50;5.83;;;0.30;99.90;;;3.46;58.56;95494.47;5022078;28;20053;-42
2023/01/18 10:20:48;;;;;;;10.97;6.30;;;0.20;99.90;;;3.69;57.85;95490.09;5025788;28;20064;-42
2023/01/18 10:23:43;;;;;;;10.20;5.73;;;0.30;99.90;;;3.27;58.62;95491.22;5030753;28;20045;-41
2023/01/18 10:26:34;;;;;;;12.27;5.65;;;0.20;99.90;;;3.35;58.67;95493.03;5026603;28;20042;-41
2023/01/18 10:29:11;;;;;;;8.83;6.23;;;0.20;99.90;;;3.54;58.20;95499.69;5021810;28;20050;-42
2023/01/18 10:31:48;;;;;;;7.23;5.43;;;0.20;99.90;;;3.41;58.53;95505.50;5024431;28;20045;-41
2023/01/18 10:34:20;;;;;;;7.97;5.47;;;0.30;99.90;;;3.74;57.95;95516.75;5030832;28;20041;-42
2023/01/18 10:36:53;;;;;;;9.47;4.93;;;0.40;99.90;;;3.79;57.82;95513.59;5002913;28;20037;-41
2023/01/18 10:39:36;;;;;;;8.27;5.63;;;0.50;99.90;;;3.91;57.54;95520.09;5014339;28;20060;-41
2023/01/18 10:42:22;;;;;;;7.60;5.10;;;0.50;99.90;;;3.83;57.75;95516.69;5026057;28;20494;-41
2023/01/18 10:44:51;;;;;;;6.73;5.27;;;0.60;99.90;;;3.92;57.65;95513.06;5018981;28;20049;-41
2023/01/18 10:47:20;;;;;;;9.43;5.73;;;0.50;99.90;;;3.79;57.63;95518.84;5021478;28;20049;-41
2023/01/18 10:49:49;;;;;;;11.10;5.80;;;0.50;99.90;;;3.95;57.76;95515.31;5023653;28;20050;-41
2023/01/18 10:52:26;;;;;;;9.87;6.07;;;0.60;99.90;;;3.59;58.50;95510.56;5026532;28;20409;-41
2023/01/18 10:55:06;;;;;;;8.07;5.30;;;0.40;99.90;;;3.92;58.10;95513.88;5028109;28;20037;-41
2023/01/18 10:57:46;;;;;;;9.87;5.07;;;0.60;99.90;;;3.94;57.77;95517.16;5035253;28;20053;-41
2023/01/18 11:00:34;;;;;;;11.23;7.03;;;0.60;99.90;;;4.19;58.04;95521.44;5037832;28;20310;-41
2023/01/18 11:03:04;;;;;;;8.77;6.57;;;0.70;99.90;;;4.27;57.27;95527.50;5054781;28;20041;-41
2023/01/18 11:05:44;;;;;;;9.97;6.67;;;0.80;99.90;;;4.17;57.28;95528.69;5019328;28;20056;-42
2023/01/18 11:08:30;;;;;;;12.33;6.17;;;0.80;99.90;;;4.24;57.30;95534.94;5038639;28;20049;-41
2023/01/18 11:11:14;;;;;;;7.67;4.83;;;0.80;99.90;;;4.19;57.20;95537.25;5038491;28;20488;-41
2023/01/18 11:13:48;;;;;;;8.57;4.77;;;0.80;99.90;;;4.11;57.33;95548.66;5040303;28;20041;-41
2023/01/18 11:16:21;;;;;;;6.90;4.90;;;0.70;99.90;;;3.98;57.06;95543.94;5039376;28;20054;-40
2023/01/18 11:19:03;;;;;;;8.27;4.80;;;0.70;99.90;;;4.08;57.26;95549.81;5037685;28;20535;-41
2023/01/18 11:21:45;;;;;;;8.23;5.20;;;0.70;99.90;;;4.05;56.86;95549.34;5039265;28;20524;-41
2023/01/18 11:24:23;;;;;;;7.27;5.10;;;0.70;99.90;;;4.19;56.93;95553.91;5038142;28;20068;-41
2023/01/18 11:27:01;;;;;;;7.67;4.70;;;0.70;99.90;;;4.07;56.86;95557.88;5038320;28;20041;-41